Aviation Digital Data Service (ADDS)

Output produced by TAFs form (0354 UTC 19 February 2018)
found at http://www.aviationweather.gov/adds/tafs/
 
KCLT 190352Z 11008KT 10SM OVC037 14/03 A3037 RMK AO2 SLP281 T01440033
KCLT 190151Z 1902/2006 08006KT P6SM BKN050 
     FM190500 07004KT 6SM -RA SCT007 OVC020 
     FM191100 05004KT 5SM BR VCSH SCT004 OVC007 
     PROB30 1911/1916 2SM -RA BR OVC004 
     FM191800 VRB03KT 5SM BR VCSH OVC005 
     FM192100 VRB03KT 4SM BR BKN009